createdAt,value
2018-07-22T00:00:44.313Z,59.20
2018-07-22T00:04:47.701Z,59.20
2018-07-22T00:08:51.036Z,59.40
2018-07-22T00:12:54.523Z,59.70
2018-07-22T00:16:57.888Z,59.10
2018-07-22T00:21:07.943Z,59.10
2018-07-22T00:25:11.307Z,59.00
2018-07-22T00:29:14.660Z,59.20
2018-07-22T00:33:17.983Z,58.80
2018-07-22T00:37:21.342Z,59.40
2018-07-22T00:41:24.756Z,59.30
2018-07-22T00:45:28.129Z,59.60
2018-07-22T00:49:31.500Z,59.40
2018-07-22T00:53:34.859Z,59.80
2018-07-22T00:57:38.198Z,59.40
2018-07-22T01:01:41.665Z,59.10
2018-07-22T01:05:45.029Z,59.30
2018-07-22T01:09:48.395Z,60.40
2018-07-22T01:13:51.762Z,59.30
2018-07-22T01:17:55.101Z,60.00
2018-07-22T01:21:58.794Z,60.00
2018-07-22T01:26:02.124Z,60.10
2018-07-22T01:30:06.731Z,59.90
2018-07-22T01:34:10.904Z,60.50
2018-07-22T01:38:14.263Z,58.90
2018-07-22T01:42:17.863Z,61.50
2018-07-22T01:46:21.206Z,59.80
2018-07-22T01:50:24.543Z,60.00
2018-07-22T01:54:27.956Z,59.90
2018-07-22T01:58:31.343Z,60.40
2018-07-22T02:02:34.704Z,59.80
2018-07-22T02:06:38.051Z,60.20
2018-07-22T02:10:41.409Z,59.90
2018-07-22T02:14:44.804Z,59.80
2018-07-22T02:18:54.558Z,60.50
2018-07-22T02:22:57.876Z,59.70
2018-07-22T02:27:01.239Z,60.70
2018-07-22T02:31:04.611Z,60.80
2018-07-22T02:35:07.958Z,61.60
2018-07-22T02:39:12.907Z,60.20
2018-07-22T02:43:16.225Z,60.90
2018-07-22T02:47:19.607Z,60.80
2018-07-22T02:51:23.033Z,60.40
2018-07-22T02:55:26.368Z,61.80
2018-07-22T02:59:29.739Z,61.70
2018-07-22T03:03:33.075Z,60.30
2018-07-22T03:07:36.414Z,62.20
2018-07-22T03:11:39.781Z,61.00
2018-07-22T03:15:43.154Z,60.80
2018-07-22T03:19:46.566Z,60.70
2018-07-22T03:23:49.903Z,61.10
2018-07-22T03:27:53.283Z,60.30
2018-07-22T03:31:56.644Z,60.60
2018-07-22T03:36:00.011Z,60.90
2018-07-22T03:40:03.391Z,61.30
2018-07-22T03:44:06.738Z,61.10
2018-07-22T03:48:10.103Z,60.50
2018-07-22T03:56:16.499Z,60.10
2018-07-22T04:00:19.859Z,59.70
2018-07-22T04:04:23.162Z,61.40
2018-07-22T04:08:26.523Z,60.70
2018-07-22T04:12:29.863Z,60.60
2018-07-22T04:16:33.194Z,61.30
2018-07-22T04:20:36.556Z,62.10
2018-07-22T04:24:39.904Z,63.20
2018-07-22T04:28:43.243Z,60.80
2018-07-22T04:32:46.591Z,61.00
2018-07-22T04:36:49.928Z,61.50
2018-07-22T04:40:53.817Z,60.40
2018-07-22T04:44:57.090Z,61.10
2018-07-22T04:49:00.448Z,61.30
2018-07-22T04:53:03.795Z,60.80
2018-07-22T04:57:07.139Z,61.40
2018-07-22T05:01:10.527Z,61.30
2018-07-22T05:05:13.879Z,61.20
2018-07-22T05:13:20.353Z,63.10
2018-07-22T05:17:23.724Z,61.70
2018-07-22T05:21:27.048Z,61.60
2018-07-22T05:25:30.373Z,62.70
2018-07-22T05:29:33.699Z,62.30
2018-07-22T05:33:37.049Z,64.40
2018-07-22T05:37:40.486Z,64.30
2018-07-22T05:41:43.896Z,62.70
2018-07-22T05:45:47.240Z,66.00
2018-07-22T05:49:50.580Z,63.40
2018-07-22T05:53:54.019Z,62.00
2018-07-22T05:57:57.336Z,64.20
2018-07-22T06:02:00.673Z,66.90
2018-07-22T06:06:04.025Z,67.60
2018-07-22T06:10:07.651Z,63.70
2018-07-22T06:14:10.998Z,66.80
2018-07-22T06:18:14.362Z,67.00
2018-07-22T06:22:17.710Z,64.10
2018-07-22T06:26:21.030Z,67.50
2018-07-22T06:30:24.379Z,66.90
2018-07-22T06:34:27.730Z,65.60
2018-07-22T06:38:31.096Z,68.50
2018-07-22T06:42:34.576Z,67.40
2018-07-22T06:46:37.975Z,65.10
2018-07-22T06:50:41.347Z,67.70
2018-07-22T06:54:44.701Z,65.00
2018-07-22T06:58:48.037Z,64.80
2018-07-22T07:02:51.374Z,67.70
2018-07-22T07:06:54.735Z,69.70
2018-07-22T07:10:58.103Z,68.30
2018-07-22T07:15:01.452Z,68.30
2018-07-22T07:19:04.884Z,65.20
2018-07-22T07:23:08.267Z,66.00
2018-07-22T07:27:11.680Z,68.90
2018-07-22T07:31:15.034Z,67.20
2018-07-22T07:35:18.383Z,65.80
2018-07-22T07:39:27.518Z,70.30
2018-07-22T07:43:30.860Z,66.10
2018-07-22T07:47:34.287Z,68.20
2018-07-22T07:51:37.769Z,67.70
2018-07-22T07:55:41.110Z,68.50
2018-07-22T07:59:44.459Z,66.30
2018-07-22T08:03:47.848Z,69.90
2018-07-22T08:07:51.199Z,69.00
2018-07-22T08:11:54.570Z,68.10
2018-07-22T08:15:57.932Z,69.70
2018-07-22T08:20:01.308Z,68.30
2018-07-22T08:24:04.694Z,67.10
2018-07-22T08:28:08.044Z,66.20
2018-07-22T08:32:11.423Z,67.10
2018-07-22T08:36:14.786Z,69.50
2018-07-22T08:40:18.457Z,65.40
2018-07-22T08:44:21.843Z,67.30
2018-07-22T08:48:25.232Z,67.60
2018-07-22T08:52:28.592Z,65.70
2018-07-22T08:56:32.483Z,64.90
2018-07-22T09:00:35.837Z,65.20
2018-07-22T09:04:39.163Z,66.10
2018-07-22T09:08:42.563Z,64.80
2018-07-22T09:12:45.883Z,64.40
2018-07-22T09:16:49.243Z,65.10
2018-07-22T09:20:52.611Z,64.30
2018-07-22T09:24:55.968Z,64.30
2018-07-22T09:28:59.362Z,64.40
2018-07-22T09:33:02.678Z,63.80
2018-07-22T09:37:06.042Z,64.10
2018-07-22T09:41:09.436Z,63.50
2018-07-22T09:45:12.819Z,63.40
2018-07-22T09:49:16.195Z,63.40
2018-07-22T09:53:19.898Z,62.90
2018-07-22T09:57:23.326Z,63.20
2018-07-22T10:01:26.721Z,63.80
2018-07-22T10:05:30.068Z,61.40
2018-07-22T10:09:33.423Z,62.70
2018-07-22T10:13:36.763Z,61.50
2018-07-22T10:17:40.325Z,59.20
2018-07-22T10:21:43.829Z,62.10
2018-07-22T10:25:47.206Z,61.10
2018-07-22T10:29:50.596Z,61.80
2018-07-22T10:33:54.016Z,60.60
2018-07-22T10:37:57.404Z,61.10
2018-07-22T10:42:00.764Z,61.10
2018-07-22T10:46:04.122Z,60.70
2018-07-22T10:50:07.794Z,59.60
2018-07-22T10:54:11.144Z,61.20
2018-07-22T10:58:14.567Z,59.60
2018-07-22T11:02:17.965Z,59.50
2018-07-22T11:06:21.299Z,59.50
2018-07-22T11:10:24.666Z,58.20
2018-07-22T11:14:28.014Z,58.40
2018-07-22T11:18:31.412Z,59.50
2018-07-22T11:22:34.775Z,57.40
2018-07-22T11:26:38.536Z,55.00
2018-07-22T11:30:42.127Z,58.50
2018-07-22T11:34:45.458Z,56.60
2018-07-22T11:38:48.814Z,54.60
2018-07-22T11:42:52.421Z,58.30
2018-07-22T11:46:55.783Z,55.50
2018-07-22T11:50:59.121Z,54.70
2018-07-22T11:55:02.447Z,56.00
2018-07-22T11:59:05.798Z,57.30
2018-07-22T12:03:09.170Z,52.40
2018-07-22T12:07:12.544Z,54.30
2018-07-22T12:11:15.880Z,56.00
2018-07-22T12:15:19.254Z,54.80
2018-07-22T12:19:22.646Z,53.10
2018-07-22T12:23:25.987Z,52.40
2018-07-22T12:27:29.366Z,55.30
2018-07-22T12:31:32.715Z,53.10
2018-07-22T12:35:36.064Z,53.40
2018-07-22T12:39:40.195Z,52.40
2018-07-22T12:43:43.575Z,53.60
2018-07-22T12:47:47.756Z,55.10
2018-07-22T12:51:51.188Z,55.10
2018-07-22T12:55:54.585Z,54.60
2018-07-22T12:59:57.962Z,52.40
2018-07-22T13:04:01.311Z,53.50
2018-07-22T13:08:04.713Z,50.10
2018-07-22T13:12:08.080Z,52.80
2018-07-22T13:16:11.446Z,52.10
2018-07-22T13:20:14.866Z,51.50
2018-07-22T13:24:18.222Z,53.60
2018-07-22T13:28:21.621Z,52.10
2018-07-22T13:32:25.090Z,52.60
2018-07-22T13:36:28.470Z,53.90
2018-07-22T13:40:31.814Z,49.90
2018-07-22T13:44:35.194Z,51.20
2018-07-22T13:48:38.883Z,52.60
2018-07-22T13:52:46.840Z,51.60
2018-07-22T13:56:50.251Z,52.60
2018-07-22T14:00:59.963Z,52.60
2018-07-22T14:05:03.483Z,50.80
2018-07-22T14:09:08.278Z,52.30
2018-07-22T14:13:11.650Z,52.40
2018-07-22T14:17:15.064Z,53.20
2018-07-22T14:21:18.407Z,53.10
2018-07-22T14:25:21.804Z,52.40
2018-07-22T14:29:25.188Z,51.80
2018-07-22T14:33:28.560Z,53.10
2018-07-22T14:37:31.941Z,53.20
2018-07-22T14:41:35.399Z,51.60
2018-07-22T14:45:38.756Z,52.60
2018-07-22T14:49:42.134Z,52.30
2018-07-22T14:53:45.524Z,53.50
2018-07-22T14:57:48.875Z,51.90
2018-07-22T15:01:52.325Z,52.00
2018-07-22T15:05:55.719Z,54.10
2018-07-22T15:09:59.089Z,53.10
2018-07-22T15:14:02.478Z,52.10
2018-07-22T15:22:09.036Z,52.70
2018-07-22T15:26:12.439Z,52.30
2018-07-22T15:30:15.784Z,53.30
2018-07-22T15:34:19.152Z,49.80
2018-07-22T15:38:22.520Z,50.20
2018-07-22T15:42:25.872Z,54.00
2018-07-22T15:46:29.275Z,51.80
2018-07-22T15:50:32.615Z,53.90
2018-07-22T15:54:35.964Z,49.00
2018-07-22T15:58:39.356Z,47.60
2018-07-22T16:02:42.702Z,50.60
2018-07-22T16:06:46.075Z,50.20
2018-07-22T16:10:49.523Z,49.90
2018-07-22T16:14:52.859Z,52.90
2018-07-22T16:18:56.296Z,51.80
2018-07-22T16:22:59.651Z,52.20
2018-07-22T16:27:02.986Z,49.90
2018-07-22T16:31:06.311Z,52.60
2018-07-22T16:35:09.666Z,51.10
2018-07-22T16:39:12.990Z,47.90
2018-07-22T16:43:16.926Z,51.90
2018-07-22T16:47:20.265Z,48.40
2018-07-22T16:51:23.571Z,47.40
2018-07-22T16:55:26.903Z,48.60
2018-07-22T16:59:30.241Z,48.20
2018-07-22T17:03:33.613Z,49.70
2018-07-22T17:07:37.207Z,49.70
2018-07-22T17:11:40.547Z,51.80
2018-07-22T17:15:43.881Z,48.10
2018-07-22T17:19:47.293Z,50.40
2018-07-22T17:23:50.631Z,51.40
2018-07-22T17:27:53.975Z,50.00
2018-07-22T17:31:57.320Z,51.90
2018-07-22T17:36:00.679Z,50.80
2018-07-22T17:40:04.191Z,51.50
2018-07-22T17:44:08.127Z,51.00
2018-07-22T17:48:11.460Z,51.20
2018-07-22T17:52:14.809Z,51.50
2018-07-22T17:56:18.185Z,52.20
2018-07-22T18:00:21.518Z,52.00
2018-07-22T18:04:24.919Z,52.20
2018-07-22T18:08:28.251Z,51.40
2018-07-22T18:12:31.576Z,52.40
2018-07-22T18:16:35.370Z,52.20
2018-07-22T18:20:38.763Z,52.30
2018-07-22T18:24:44.422Z,52.40
2018-07-22T18:28:47.885Z,52.60
2018-07-22T18:32:51.302Z,53.30
2018-07-22T18:36:54.702Z,53.00
2018-07-22T18:40:58.064Z,53.00
2018-07-22T18:45:01.420Z,52.80
2018-07-22T18:49:04.843Z,53.50
2018-07-22T18:53:08.197Z,53.20
2018-07-22T18:57:11.884Z,53.30
2018-07-22T19:01:15.256Z,53.60
2018-07-22T19:05:18.679Z,53.50
2018-07-22T19:09:22.615Z,53.70
2018-07-22T19:13:25.964Z,53.60
2018-07-22T19:17:29.353Z,53.70
2018-07-22T19:21:32.841Z,53.90
2018-07-22T19:25:36.332Z,54.00
2018-07-22T19:29:39.835Z,54.00
2018-07-22T19:33:43.223Z,54.30
2018-07-22T19:37:46.624Z,54.20
2018-07-22T19:41:50.028Z,54.80
2018-07-22T19:45:53.405Z,54.40
2018-07-22T19:49:56.806Z,54.40
2018-07-22T19:54:00.188Z,54.70
2018-07-22T19:58:03.559Z,54.60
2018-07-22T20:02:06.918Z,55.10
2018-07-22T20:06:10.287Z,54.70
2018-07-22T20:10:13.665Z,55.00
2018-07-22T20:14:16.999Z,55.20
2018-07-22T20:18:20.386Z,55.30
2018-07-22T20:22:23.741Z,55.50
2018-07-22T20:26:27.081Z,55.50
2018-07-22T20:30:30.444Z,56.00
2018-07-22T20:34:33.831Z,56.40
2018-07-22T20:38:37.180Z,56.50
2018-07-22T20:42:40.562Z,56.40
2018-07-22T20:46:43.901Z,55.60
2018-07-22T20:50:47.313Z,57.10
2018-07-22T20:54:50.704Z,57.00
2018-07-22T20:58:54.026Z,57.20
2018-07-22T21:02:57.382Z,57.10
2018-07-22T21:07:01.539Z,57.10
2018-07-22T21:11:04.946Z,57.60
2018-07-22T21:15:08.909Z,56.50
2018-07-22T21:19:12.256Z,57.70
2018-07-22T21:23:15.663Z,58.20
2018-07-22T21:27:21.450Z,57.90
2018-07-22T21:31:25.105Z,57.90
2018-07-22T21:35:28.528Z,57.90
2018-07-22T21:39:32.287Z,58.30
2018-07-22T21:43:35.754Z,58.30
2018-07-22T21:47:39.212Z,58.50
2018-07-22T21:51:42.563Z,58.00
2018-07-22T21:55:47.035Z,58.50
2018-07-22T21:59:50.472Z,59.00
2018-07-22T22:03:54.696Z,58.50
2018-07-22T22:07:58.511Z,59.20
2018-07-22T22:12:01.978Z,58.80
2018-07-22T22:16:05.431Z,59.60
2018-07-22T22:20:08.790Z,58.50
2018-07-22T22:24:12.185Z,59.90
2018-07-22T22:28:15.528Z,59.80
2018-07-22T22:36:21.997Z,59.50
2018-07-22T22:40:25.328Z,60.20
2018-07-22T22:48:31.767Z,61.80
2018-07-22T22:52:35.100Z,60.50
2018-07-22T22:56:38.443Z,61.90
2018-07-22T23:00:41.788Z,59.70
2018-07-22T23:04:45.243Z,60.90
2018-07-22T23:08:48.623Z,60.60
2018-07-22T23:12:51.978Z,59.40
2018-07-22T23:16:55.323Z,60.20
2018-07-22T23:20:58.637Z,60.40
2018-07-22T23:25:02.736Z,60.70
2018-07-22T23:29:06.093Z,60.60
2018-07-22T23:33:09.430Z,59.40
2018-07-22T23:37:12.778Z,59.70
2018-07-22T23:41:16.091Z,59.30
2018-07-22T23:45:19.424Z,61.00
2018-07-22T23:49:22.760Z,59.60
2018-07-22T23:53:26.169Z,60.70
2018-07-22T23:57:30.864Z,61.20
